createdAt,value
2022-08-12T00:00:08.977Z,1.60
2022-08-12T00:02:03.981Z,2.42
2022-08-12T00:03:11.850Z,1.77
2022-08-12T00:04:39.133Z,1.92
2022-08-12T00:06:04.843Z,1.67
2022-08-12T00:07:26.740Z,1.58
2022-08-12T00:08:49.383Z,1.60
2022-08-12T00:10:11.279Z,1.52
2022-08-12T00:11:33.558Z,1.80
2022-08-12T00:12:54.851Z,1.83
2022-08-12T00:14:16.198Z,1.63
2022-08-12T00:15:37.571Z,1.67
2022-08-12T00:16:59.069Z,1.80
2022-08-12T00:18:23.373Z,1.88
2022-08-12T00:19:44.511Z,2.13
2022-08-12T00:21:05.936Z,1.60
2022-08-12T00:22:27.137Z,1.80
2022-08-12T00:23:48.512Z,1.20
2022-08-12T00:25:10.076Z,2.00
2022-08-12T00:26:34.212Z,1.67
2022-08-12T00:27:55.231Z,1.42
2022-08-12T00:29:16.421Z,2.03
2022-08-12T00:30:37.638Z,1.60
2022-08-12T00:32:00.994Z,1.50
2022-08-12T00:33:23.009Z,1.50
2022-08-12T00:34:51.776Z,1.63
2022-08-12T00:36:34.985Z,1.88
2022-08-12T00:37:53.928Z,1.70
2022-08-12T00:39:15.228Z,1.70
2022-08-12T00:40:36.270Z,2.10
2022-08-12T00:41:58.231Z,1.60
2022-08-12T00:43:01.039Z,1.60
2022-08-12T00:44:03.916Z,1.50
2022-08-12T00:45:07.096Z,1.17
2022-08-12T00:46:28.051Z,1.75
2022-08-12T00:47:31.504Z,1.48
2022-08-12T00:48:34.485Z,1.50
2022-08-12T00:49:38.255Z,1.55
2022-08-12T00:50:41.244Z,1.42
2022-08-12T00:52:03.500Z,1.70
2022-08-12T00:53:06.684Z,1.40
2022-08-12T00:54:09.623Z,1.40
2022-08-12T00:55:13.459Z,1.45
2022-08-12T00:56:16.131Z,1.60
2022-08-12T00:57:21.492Z,1.65
2022-08-12T00:58:28.646Z,1.30
2022-08-12T00:59:33.027Z,1.50
2022-08-12T01:00:35.886Z,1.42
2022-08-12T01:02:00.974Z,1.38
2022-08-12T01:03:02.519Z,1.30
2022-08-12T01:04:25.703Z,1.75
2022-08-12T01:05:50.597Z,1.38
2022-08-12T01:07:13.985Z,1.27
2022-08-12T01:08:35.053Z,1.30
2022-08-12T01:09:56.120Z,1.17
2022-08-12T01:11:17.743Z,1.33
2022-08-12T01:12:20.759Z,1.80
2022-08-12T01:13:24.366Z,1.45
2022-08-12T01:14:28.591Z,1.80
2022-08-12T01:15:33.359Z,1.40
2022-08-12T01:16:36.480Z,1.40
2022-08-12T01:17:44.491Z,1.67
2022-08-12T01:18:47.813Z,1.63
2022-08-12T01:19:52.864Z,1.52
2022-08-12T01:21:28.546Z,1.10
2022-08-12T01:22:41.729Z,1.08
2022-08-12T01:23:52.078Z,1.77
2022-08-12T01:25:17.559Z,1.38
2022-08-12T01:26:24.582Z,1.85
2022-08-12T01:27:27.909Z,1.27
2022-08-12T01:28:31.757Z,1.20
2022-08-12T01:29:38.184Z,1.60
2022-08-12T01:30:43.445Z,1.50
2022-08-12T01:31:47.265Z,1.33
2022-08-12T01:32:50.674Z,1.30
2022-08-12T01:34:03.930Z,1.40
2022-08-12T01:35:07.026Z,1.38
2022-08-12T01:36:11.380Z,1.85
2022-08-12T01:37:14.657Z,0.98
2022-08-12T01:38:21.252Z,1.27
2022-08-12T01:40:33.231Z,1.58
2022-08-12T01:41:10.061Z,1.42
2022-08-12T01:42:14.280Z,1.50
2022-08-12T01:43:21.297Z,1.50
2022-08-12T01:44:24.605Z,1.30
2022-08-12T01:45:29.605Z,1.50
2022-08-12T01:47:06.898Z,1.40
2022-08-12T01:48:23.591Z,1.48
2022-08-12T01:49:35.043Z,1.60
2022-08-12T01:51:00.500Z,1.30
2022-08-12T01:52:20.171Z,1.10
2022-08-12T01:53:26.528Z,1.35
2022-08-12T01:54:32.487Z,1.55
2022-08-12T01:55:38.954Z,1.20
2022-08-12T01:57:03.598Z,1.40
2022-08-12T01:58:51.566Z,1.35
2022-08-12T02:00:00.361Z,1.55
2022-08-12T02:01:09.458Z,1.40
2022-08-12T02:02:16.904Z,1.10
2022-08-12T02:03:54.989Z,1.52
2022-08-12T02:05:20.717Z,1.58
2022-08-12T02:06:49.271Z,1.10
2022-08-12T02:08:49.265Z,1.30
2022-08-12T02:10:49.391Z,1.13
2022-08-12T02:12:06.215Z,1.48
2022-08-12T02:13:33.130Z,1.38
2022-08-12T02:14:53.204Z,1.70
2022-08-12T02:16:13.691Z,1.10
2022-08-12T02:17:54.794Z,1.45
2022-08-12T02:18:57.279Z,1.10
2022-08-12T02:20:02.635Z,1.13
2022-08-12T02:21:20.462Z,1.50
2022-08-12T02:22:45.033Z,1.65
2022-08-12T02:23:48.241Z,1.17
2022-08-12T02:24:54.309Z,1.25
2022-08-12T02:25:59.655Z,1.42
2022-08-12T02:27:04.476Z,1.63
2022-08-12T02:28:07.845Z,1.40
2022-08-12T02:29:13.229Z,1.20
2022-08-12T02:30:19.474Z,1.27
2022-08-12T02:31:24.817Z,1.48
2022-08-12T02:32:27.578Z,1.15
2022-08-12T02:33:31.645Z,1.27
2022-08-12T02:34:34.963Z,1.58
2022-08-12T02:35:39.827Z,1.10
2022-08-12T02:36:43.511Z,1.20
2022-08-12T02:37:52.101Z,1.23
2022-08-12T02:38:55.784Z,1.30
2022-08-12T02:40:00.611Z,1.50
2022-08-12T02:41:07.015Z,1.40
2022-08-12T02:42:11.066Z,1.35
2022-08-12T02:43:22.752Z,1.00
2022-08-12T02:44:26.801Z,1.33
2022-08-12T02:45:45.303Z,1.88
2022-08-12T02:46:50.371Z,1.20
2022-08-12T02:47:59.188Z,1.45
2022-08-12T02:50:14.987Z,1.67
2022-08-12T02:51:24.539Z,1.50
2022-08-12T02:52:27.995Z,1.20
2022-08-12T02:53:32.432Z,1.20
2022-08-12T02:54:35.330Z,1.58
2022-08-12T02:55:38.037Z,1.40
2022-08-12T02:56:50.737Z,1.33
2022-08-12T02:57:53.891Z,1.25
2022-08-12T02:58:58.106Z,1.33
2022-08-12T03:00:03.981Z,1.40
2022-08-12T03:01:10.857Z,1.25
2022-08-12T03:02:14.895Z,1.23
2022-08-12T03:03:19.907Z,1.25
2022-08-12T03:04:47.400Z,1.10
2022-08-12T03:06:06.399Z,1.20
2022-08-12T03:07:09.794Z,1.25
2022-08-12T03:08:23.453Z,1.30
2022-08-12T03:10:04.887Z,1.35
2022-08-12T03:11:16.862Z,1.35
2022-08-12T03:12:20.957Z,1.35
2022-08-12T03:13:26.563Z,1.38
2022-08-12T03:14:30.272Z,1.20
2022-08-12T03:15:33.512Z,1.40
2022-08-12T03:16:36.820Z,1.27
2022-08-12T03:18:26.041Z,1.60
2022-08-12T03:19:24.575Z,1.42
2022-08-12T03:20:28.606Z,2.33
2022-08-12T03:21:55.313Z,1.30
2022-08-12T03:22:59.123Z,1.17
2022-08-12T03:24:08.993Z,1.50
2022-08-12T03:25:25.184Z,0.90
2022-08-12T03:26:28.706Z,1.50
2022-08-12T03:27:32.122Z,1.40
2022-08-12T03:28:51.928Z,1.08
2022-08-12T03:29:56.804Z,1.48
2022-08-12T03:31:04.507Z,1.13
2022-08-12T03:32:07.920Z,1.00
2022-08-12T03:33:35.185Z,1.30
2022-08-12T03:34:37.909Z,1.20
2022-08-12T03:35:42.688Z,1.40
2022-08-12T03:36:48.187Z,1.10
2022-08-12T03:37:51.692Z,1.50
2022-08-12T03:39:19.452Z,1.58
2022-08-12T03:41:05.976Z,1.40
2022-08-12T03:42:34.823Z,1.52
2022-08-12T03:44:06.809Z,1.30
2022-08-12T03:45:33.723Z,1.60
2022-08-12T03:46:58.061Z,1.15
2022-08-12T03:48:27.333Z,1.20
2022-08-12T03:49:48.631Z,1.25
2022-08-12T03:51:10.925Z,0.80
2022-08-12T03:52:31.883Z,1.10
2022-08-12T03:53:56.192Z,1.30
2022-08-12T03:55:17.642Z,1.40
2022-08-12T03:56:39.011Z,1.42
2022-08-12T03:58:00.441Z,1.30
2022-08-12T03:59:23.809Z,1.40
2022-08-12T04:00:26.645Z,1.27
2022-08-12T04:01:29.215Z,1.52
2022-08-12T04:02:34.596Z,1.50
2022-08-12T04:03:53.010Z,1.45
2022-08-12T04:04:55.931Z,1.70
2022-08-12T04:05:58.856Z,1.55
2022-08-12T04:07:04.077Z,1.70
2022-08-12T04:08:10.933Z,1.90
2022-08-12T04:09:15.586Z,1.50
2022-08-12T04:10:20.146Z,1.60
2022-08-12T04:11:46.960Z,1.15
2022-08-12T04:13:19.940Z,1.55
2022-08-12T04:14:22.503Z,1.17
2022-08-12T04:15:28.989Z,1.30
2022-08-12T04:16:32.210Z,1.33
2022-08-12T04:17:35.024Z,1.45
2022-08-12T04:18:38.872Z,1.15
2022-08-12T04:19:41.906Z,1.50
2022-08-12T04:20:45.220Z,1.73
2022-08-12T04:22:01.839Z,1.30
2022-08-12T04:23:08.508Z,1.70
2022-08-12T04:24:11.711Z,1.40
2022-08-12T04:25:14.792Z,1.50
2022-08-12T04:26:17.448Z,1.45
2022-08-12T04:27:20.189Z,1.08
2022-08-12T04:28:27.998Z,1.40
2022-08-12T04:30:31.277Z,1.35
2022-08-12T04:30:53.537Z,1.25
2022-08-12T04:31:56.519Z,1.58
2022-08-12T04:32:59.288Z,1.52
2022-08-12T04:34:03.084Z,1.45
2022-08-12T04:35:07.170Z,1.20
2022-08-12T04:36:09.957Z,1.58
2022-08-12T04:37:13.382Z,1.38
2022-08-12T04:38:17.732Z,2.10
2022-08-12T04:39:22.129Z,1.70
2022-08-12T04:40:28.045Z,1.48
2022-08-12T04:41:31.827Z,1.30
2022-08-12T04:42:34.473Z,1.40
2022-08-12T04:44:00.462Z,1.45
2022-08-12T04:45:01.333Z,1.40
2022-08-12T04:46:04.047Z,1.60
2022-08-12T04:47:06.582Z,1.38
2022-08-12T04:48:09.829Z,1.48
2022-08-12T04:49:14.400Z,1.30
2022-08-12T04:50:34.111Z,1.50
2022-08-12T04:51:39.286Z,1.60
2022-08-12T04:52:42.334Z,1.48
2022-08-12T04:53:47.201Z,1.52
2022-08-12T04:54:50.213Z,1.45
2022-08-12T04:55:53.182Z,1.63
2022-08-12T04:57:03.041Z,1.40
2022-08-12T04:58:08.721Z,1.30
2022-08-12T04:59:12.343Z,1.40
2022-08-12T05:00:16.635Z,1.40
2022-08-12T05:01:20.271Z,1.65
2022-08-12T05:02:23.165Z,1.40
2022-08-12T05:03:27.081Z,1.58
2022-08-12T05:04:30.082Z,1.58
2022-08-12T05:05:36.047Z,1.40
2022-08-12T05:06:38.974Z,1.60
2022-08-12T05:07:45.752Z,1.50
2022-08-12T05:09:00.590Z,1.33
2022-08-12T05:10:04.563Z,1.50
2022-08-12T05:11:07.168Z,1.70
2022-08-12T05:12:11.120Z,1.45
2022-08-12T05:13:16.844Z,1.67
2022-08-12T05:14:19.605Z,1.35
2022-08-12T05:15:29.481Z,1.30
2022-08-12T05:16:34.353Z,1.65
2022-08-12T05:17:40.119Z,1.55
2022-08-12T05:18:45.887Z,1.70
2022-08-12T05:19:53.471Z,1.67
2022-08-12T05:21:00.104Z,1.50
2022-08-12T05:22:03.069Z,1.45
2022-08-12T05:23:13.435Z,1.67
2022-08-12T05:24:16.369Z,1.40
2022-08-12T05:25:21.092Z,1.45
2022-08-12T05:26:25.183Z,1.75
2022-08-12T05:27:28.110Z,1.67
2022-08-12T05:28:30.918Z,1.67
2022-08-12T05:30:07.866Z,1.42
2022-08-12T05:30:57.614Z,1.40
2022-08-12T05:32:01.205Z,1.17
2022-08-12T05:33:07.111Z,1.20
2022-08-12T05:34:14.611Z,1.58
2022-08-12T05:35:17.357Z,1.42
2022-08-12T05:36:24.242Z,1.75
2022-08-12T05:37:26.892Z,1.75
2022-08-12T05:38:47.869Z,1.27
2022-08-12T05:39:50.831Z,1.30
2022-08-12T05:40:53.635Z,1.55
2022-08-12T05:41:56.281Z,1.30
2022-08-12T05:42:58.944Z,1.70
2022-08-12T05:44:06.758Z,1.30
2022-08-12T05:45:10.084Z,1.02
2022-08-12T05:46:12.943Z,1.48
2022-08-12T05:47:16.247Z,2.28
2022-08-12T05:48:19.641Z,1.38
2022-08-12T05:49:22.720Z,1.73
2022-08-12T05:50:26.615Z,1.27
2022-08-12T05:51:40.608Z,1.70
2022-08-12T05:52:44.241Z,1.42
2022-08-12T05:53:46.961Z,1.38
2022-08-12T05:54:57.587Z,1.35
2022-08-12T05:56:00.355Z,1.05
2022-08-12T05:57:03.608Z,1.42
2022-08-12T05:58:07.906Z,1.45
2022-08-12T05:59:12.222Z,1.30
2022-08-12T06:00:16.723Z,1.70
2022-08-12T06:02:09.493Z,1.95
2022-08-12T06:02:45.489Z,1.15
2022-08-12T06:03:48.222Z,1.13
2022-08-12T06:04:51.039Z,1.23
2022-08-12T06:05:55.604Z,1.05
2022-08-12T06:06:58.836Z,1.30
2022-08-12T06:08:05.963Z,1.20
2022-08-12T06:09:15.691Z,1.20
2022-08-12T06:10:18.280Z,1.65
2022-08-12T06:11:35.542Z,0.90
2022-08-12T06:12:39.021Z,1.27
2022-08-12T06:13:53.742Z,1.33
2022-08-12T06:14:57.235Z,1.38
2022-08-12T06:15:59.893Z,1.25
2022-08-12T06:17:03.867Z,1.52
2022-08-12T06:18:13.747Z,1.30
2022-08-12T06:19:18.949Z,1.45
2022-08-12T06:20:27.099Z,1.42
2022-08-12T06:21:33.357Z,1.30
2022-08-12T06:22:35.947Z,1.35
2022-08-12T06:23:42.441Z,1.33
2022-08-12T06:24:45.540Z,0.90
2022-08-12T06:25:48.165Z,0.95
2022-08-12T06:26:51.426Z,1.10
2022-08-12T06:28:06.480Z,1.25
2022-08-12T06:29:10.651Z,1.20
2022-08-12T06:30:27.683Z,1.10
2022-08-12T06:31:36.351Z,1.23
2022-08-12T06:32:51.842Z,1.30
2022-08-12T06:35:24.929Z,1.00
2022-08-12T06:35:48.791Z,0.80
2022-08-12T06:36:50.537Z,1.33
2022-08-12T06:37:57.648Z,1.10
2022-08-12T06:39:00.885Z,1.10
2022-08-12T06:40:04.327Z,1.08
2022-08-12T06:41:25.342Z,0.93
2022-08-12T06:42:46.938Z,1.08
2022-08-12T06:44:05.828Z,1.10
2022-08-12T06:45:12.519Z,0.90
2022-08-12T06:46:15.350Z,1.00
2022-08-12T06:47:19.549Z,0.98
2022-08-12T06:48:23.881Z,0.90
2022-08-12T06:49:28.420Z,0.98
2022-08-12T06:50:31.152Z,0.88
2022-08-12T06:51:36.490Z,0.90
2022-08-12T06:52:39.459Z,1.48
2022-08-12T06:53:44.124Z,0.90
2022-08-12T06:54:46.747Z,0.90
2022-08-12T06:55:57.679Z,0.93
2022-08-12T06:57:04.758Z,0.85
2022-08-12T06:58:10.149Z,0.98
2022-08-12T06:59:14.735Z,1.10
2022-08-12T07:00:31.280Z,0.80
2022-08-12T07:01:36.527Z,0.85
2022-08-12T07:02:39.275Z,0.80
2022-08-12T07:03:42.243Z,1.10
2022-08-12T07:04:46.186Z,1.10
2022-08-12T07:05:48.878Z,1.00
2022-08-12T07:06:55.853Z,0.90
2022-08-12T07:08:10.340Z,1.20
2022-08-12T07:09:55.732Z,0.93
2022-08-12T07:10:53.606Z,1.00
2022-08-12T07:11:56.341Z,0.85
2022-08-12T07:13:01.948Z,0.90
2022-08-12T07:14:13.036Z,0.93
2022-08-12T07:15:18.694Z,1.13
2022-08-12T07:16:21.916Z,1.02
2022-08-12T07:17:24.818Z,0.95
2022-08-12T07:18:32.801Z,1.08
2022-08-12T07:19:45.067Z,1.00
2022-08-12T07:20:53.251Z,0.80
2022-08-12T07:22:01.702Z,0.70
2022-08-12T07:23:06.028Z,1.02
2022-08-12T07:24:08.699Z,1.00
2022-08-12T07:25:29.804Z,0.98
2022-08-12T07:26:44.815Z,0.82
2022-08-12T07:27:48.051Z,1.10
2022-08-12T07:28:50.800Z,1.05
2022-08-12T07:30:03.846Z,1.08
2022-08-12T07:31:09.306Z,0.90
2022-08-12T07:32:11.794Z,0.70
2022-08-12T07:33:15.955Z,1.30
2022-08-12T07:34:18.864Z,1.00
2022-08-12T07:35:21.781Z,1.02
2022-08-12T07:36:25.574Z,0.68
2022-08-12T07:37:28.212Z,0.75
2022-08-12T07:38:35.912Z,0.60
2022-08-12T07:39:50.745Z,1.10
2022-08-12T07:41:07.529Z,1.25
2022-08-12T07:42:10.799Z,1.50
2022-08-12T07:43:13.415Z,1.15
2022-08-12T07:44:15.912Z,1.38
2022-08-12T07:45:20.342Z,0.73
2022-08-12T07:46:37.454Z,0.77
2022-08-12T07:47:43.704Z,0.98
2022-08-12T07:48:48.909Z,0.88
2022-08-12T07:50:05.610Z,1.17
2022-08-12T07:51:09.916Z,1.20
2022-08-12T07:52:12.656Z,1.02
2022-08-12T07:53:15.806Z,1.10
2022-08-12T07:54:18.393Z,1.10
2022-08-12T07:55:21.012Z,0.90
2022-08-12T07:56:23.626Z,1.10
2022-08-12T07:57:26.412Z,0.73
2022-08-12T07:58:29.072Z,1.17
2022-08-12T07:59:34.024Z,0.90
2022-08-12T08:00:40.333Z,1.15
2022-08-12T08:01:43.309Z,0.80
2022-08-12T08:02:46.421Z,1.00
2022-08-12T08:04:12.966Z,0.80
2022-08-12T08:05:19.512Z,1.02
2022-08-12T08:06:22.541Z,0.70
2022-08-12T08:07:27.609Z,0.93
2022-08-12T08:08:33.166Z,0.80
2022-08-12T08:09:36.029Z,1.13
2022-08-12T08:10:38.781Z,0.90
2022-08-12T08:11:59.979Z,1.13
2022-08-12T08:13:05.299Z,1.02
2022-08-12T08:14:08.724Z,1.13
2022-08-12T08:15:11.619Z,0.73
2022-08-12T08:16:15.298Z,1.13
2022-08-12T08:17:17.949Z,0.80
2022-08-12T08:18:26.352Z,0.75
2022-08-12T08:19:32.194Z,0.90
2022-08-12T08:20:39.663Z,0.90
2022-08-12T08:21:42.807Z,0.85
2022-08-12T08:22:45.527Z,0.80
2022-08-12T08:24:06.996Z,0.90
2022-08-12T08:25:34.796Z,0.93
2022-08-12T08:26:36.374Z,0.70
2022-08-12T08:27:45.832Z,0.60
2022-08-12T08:28:48.540Z,0.90
2022-08-12T08:29:51.428Z,1.10
2022-08-12T08:30:54.020Z,1.42
2022-08-12T08:32:01.638Z,0.85
2022-08-12T08:33:17.867Z,0.80
2022-08-12T08:34:54.017Z,0.85
2022-08-12T08:35:54.596Z,0.80
2022-08-12T08:36:57.862Z,1.02
2022-08-12T08:38:32.923Z,0.60
2022-08-12T08:39:39.214Z,0.80
2022-08-12T08:41:03.758Z,0.90
2022-08-12T08:42:24.819Z,0.80
2022-08-12T08:43:44.165Z,1.00
2022-08-12T08:44:49.734Z,1.42
2022-08-12T08:46:05.597Z,1.00
2022-08-12T08:47:11.372Z,0.98
2022-08-12T08:48:15.238Z,1.00
2022-08-12T08:49:18.270Z,0.88
2022-08-12T08:50:20.957Z,1.00
2022-08-12T08:51:26.318Z,0.98
2022-08-12T08:52:45.679Z,0.93
2022-08-12T08:53:52.746Z,0.77
2022-08-12T08:54:55.546Z,0.82
2022-08-12T08:56:04.929Z,0.80
2022-08-12T08:58:11.912Z,0.60
2022-08-12T08:59:14.791Z,0.60
2022-08-12T09:00:20.019Z,0.77
2022-08-12T09:01:22.968Z,0.73
2022-08-12T09:02:26.761Z,0.70
2022-08-12T09:05:07.460Z,0.60
2022-08-12T09:05:11.001Z,0.90
2022-08-12T09:06:17.357Z,0.60
2022-08-12T09:07:51.642Z,1.00
2022-08-12T09:08:44.365Z,0.80
2022-08-12T09:10:02.208Z,0.70
2022-08-12T09:13:06.727Z,0.95
2022-08-12T09:14:18.601Z,0.73
2022-08-12T09:15:22.281Z,0.90
2022-08-12T09:18:08.987Z,0.70
2022-08-12T09:19:27.324Z,0.85
2022-08-12T09:20:33.717Z,0.98
2022-08-12T09:23:01.299Z,0.90
2022-08-12T09:24:10.887Z,0.90
2022-08-12T09:25:25.197Z,0.85
2022-08-12T09:26:31.990Z,0.93
2022-08-12T09:28:03.246Z,0.88
2022-08-12T09:29:12.141Z,0.70
2022-08-12T09:32:02.778Z,0.80
2022-08-12T09:33:05.200Z,0.82
2022-08-12T09:34:29.084Z,0.80
2022-08-12T09:35:42.832Z,1.00
2022-08-12T09:37:01.167Z,1.08
2022-08-12T09:38:05.628Z,0.88
2022-08-12T09:40:05.967Z,0.70
2022-08-12T09:41:01.672Z,1.10
2022-08-12T09:42:42.651Z,0.73
2022-08-12T09:44:16.919Z,0.85
2022-08-12T09:46:12.027Z,0.98
2022-08-12T09:47:00.847Z,1.00
2022-08-12T09:48:08.797Z,0.98
2022-08-12T09:49:13.488Z,1.02
2022-08-12T09:50:20.831Z,1.05
2022-08-12T09:51:23.606Z,0.70
2022-08-12T09:52:32.075Z,0.80
2022-08-12T09:53:38.473Z,0.70
2022-08-12T09:54:43.265Z,0.90
2022-08-12T09:56:05.657Z,0.80
2022-08-12T09:58:45.114Z,1.20
2022-08-12T09:58:57.943Z,0.98
2022-08-12T10:00:27.523Z,0.90
2022-08-12T10:01:34.696Z,0.95
2022-08-12T10:02:45.710Z,0.93
2022-08-12T10:04:04.146Z,0.90
2022-08-12T10:05:13.310Z,0.77
2022-08-12T10:06:26.906Z,1.00
2022-08-12T10:07:40.012Z,0.95
2022-08-12T10:08:44.552Z,1.13
2022-08-12T10:09:58.642Z,1.30
2022-08-12T10:11:23.150Z,1.20
2022-08-12T10:13:06.773Z,1.05
2022-08-12T10:14:07.367Z,1.10
2022-08-12T10:16:01.579Z,1.05
2022-08-12T10:16:44.418Z,1.30
2022-08-12T10:17:56.904Z,1.05
2022-08-12T10:19:17.542Z,1.30
2022-08-12T10:20:20.856Z,1.77
2022-08-12T10:21:36.527Z,1.30
2022-08-12T10:22:41.589Z,1.38
2022-08-12T10:23:51.534Z,1.27
2022-08-12T10:25:17.275Z,1.25
2022-08-12T10:26:40.107Z,1.50
2022-08-12T10:28:04.915Z,1.20
2022-08-12T10:30:38.144Z,1.50
2022-08-12T10:30:59.428Z,1.75
2022-08-12T10:32:43.831Z,1.23
2022-08-12T10:34:05.382Z,1.70
2022-08-12T10:35:10.677Z,2.00
2022-08-12T10:36:13.426Z,1.35
2022-08-12T10:38:05.039Z,1.75
2022-08-12T10:38:44.137Z,1.60
2022-08-12T10:40:00.915Z,1.48
2022-08-12T10:41:58.237Z,1.60
2022-08-12T10:43:06.417Z,1.50
2022-08-12T10:44:17.297Z,1.73
2022-08-12T10:45:20.596Z,1.55
2022-08-12T10:46:30.522Z,1.60
2022-08-12T10:48:07.670Z,1.38
2022-08-12T10:49:05.393Z,1.42
2022-08-12T10:50:33.646Z,1.70
2022-08-12T10:52:03.214Z,1.33
2022-08-12T10:53:15.658Z,1.52
2022-08-12T10:54:26.834Z,1.60
2022-08-12T10:55:30.203Z,1.48
2022-08-12T10:56:38.944Z,1.25
2022-08-12T10:57:50.413Z,1.73
2022-08-12T10:59:10.525Z,1.20
2022-08-12T11:00:35.204Z,1.30
2022-08-12T11:04:16.930Z,1.45
2022-08-12T11:04:18.211Z,1.60
2022-08-12T11:04:39.472Z,1.63
2022-08-12T11:07:08.564Z,1.75
2022-08-12T11:08:36.997Z,1.73
2022-08-12T11:08:43.059Z,1.60
2022-08-12T11:10:00.508Z,1.70
2022-08-12T11:11:13.202Z,2.30
2022-08-12T11:12:56.584Z,1.95
2022-08-12T11:13:46.834Z,1.50
2022-08-12T11:14:52.185Z,1.85
2022-08-12T11:16:19.148Z,1.83
2022-08-12T11:17:34.462Z,1.80
2022-08-12T11:18:43.645Z,2.00
2022-08-12T11:19:48.658Z,2.03
2022-08-12T11:20:52.267Z,1.77
2022-08-12T11:21:57.525Z,2.30
2022-08-12T11:23:24.667Z,1.85
2022-08-12T11:24:30.792Z,1.85
2022-08-12T11:25:55.992Z,1.75
2022-08-12T11:26:59.553Z,2.00
2022-08-12T11:28:02.293Z,2.05
2022-08-12T11:29:22.764Z,2.08
2022-08-12T11:30:31.273Z,2.08
2022-08-12T11:31:40.719Z,2.10
2022-08-12T11:32:57.655Z,2.20
2022-08-12T11:34:04.171Z,2.00
2022-08-12T11:35:11.708Z,2.40
2022-08-12T11:36:14.662Z,2.58
2022-08-12T11:37:26.184Z,2.03
2022-08-12T11:38:29.400Z,1.95
2022-08-12T11:40:55.704Z,2.10
2022-08-12T11:42:01.606Z,2.42
2022-08-12T11:43:19.932Z,2.25
2022-08-12T11:44:35.837Z,2.53
2022-08-12T11:46:53.236Z,2.63
2022-08-12T11:47:56.846Z,2.33
2022-08-12T11:48:59.402Z,2.22
2022-08-12T11:50:02.186Z,2.40
2022-08-12T11:51:06.179Z,2.50
2022-08-12T11:52:27.232Z,2.25
2022-08-12T11:53:57.263Z,1.98
2022-08-12T11:54:54.621Z,2.40
2022-08-12T11:55:57.595Z,2.45
2022-08-12T11:57:02.406Z,2.35
2022-08-12T11:58:40.522Z,2.55
2022-08-12T12:02:18.800Z,2.42
2022-08-12T12:03:23.188Z,2.40
2022-08-12T12:04:28.930Z,2.53
2022-08-12T12:05:41.580Z,2.30
2022-08-12T12:06:49.824Z,2.38
2022-08-12T12:08:37.971Z,2.15
2022-08-12T12:09:19.089Z,2.03
2022-08-12T12:10:21.842Z,2.50
2022-08-12T12:11:24.415Z,2.13
2022-08-12T12:12:28.147Z,2.60
2022-08-12T12:14:08.745Z,2.40
2022-08-12T12:14:54.503Z,2.40
2022-08-12T12:15:58.614Z,2.28
2022-08-12T12:17:02.862Z,2.17
2022-08-12T12:18:31.843Z,2.20
2022-08-12T12:19:45.208Z,2.42
2022-08-12T12:20:48.627Z,2.40
2022-08-12T12:21:51.296Z,2.22
2022-08-12T12:22:54.022Z,2.42
2022-08-12T12:24:00.767Z,2.03
2022-08-12T12:25:13.129Z,2.20
2022-08-12T12:26:35.216Z,2.33
2022-08-12T12:28:05.704Z,2.30
2022-08-12T12:30:19.642Z,2.28
2022-08-12T12:30:33.957Z,2.30
2022-08-12T12:32:12.142Z,2.40
2022-08-12T12:32:59.442Z,2.20
2022-08-12T12:34:02.234Z,2.15
2022-08-12T12:35:14.059Z,2.75
2022-08-12T12:36:30.051Z,2.15
2022-08-12T12:38:04.896Z,2.10
2022-08-12T12:38:56.747Z,2.60
2022-08-12T12:40:00.059Z,2.13
2022-08-12T12:42:43.792Z,2.70
2022-08-12T12:43:43.573Z,2.33
2022-08-12T12:45:32.427Z,2.28
2022-08-12T12:47:29.385Z,2.30
2022-08-12T12:49:11.120Z,2.13
2022-08-12T12:51:14.456Z,2.13
2022-08-12T12:54:07.771Z,2.33
2022-08-12T12:55:22.185Z,2.47
2022-08-12T12:57:02.008Z,2.63
2022-08-12T12:58:43.481Z,2.85
2022-08-12T13:00:24.911Z,2.42
2022-08-12T13:02:08.249Z,2.78
2022-08-12T13:03:49.731Z,2.67
2022-08-12T13:05:42.263Z,2.33
2022-08-12T13:07:22.516Z,2.58
2022-08-12T13:09:22.885Z,2.78
2022-08-12T13:11:04.342Z,2.65
2022-08-12T13:12:44.304Z,3.10
2022-08-12T13:14:27.969Z,2.43
2022-08-12T13:16:14.426Z,2.85
2022-08-12T13:18:04.978Z,2.70
2022-08-12T13:19:46.646Z,2.38
2022-08-12T13:21:33.377Z,2.58
2022-08-12T13:23:36.721Z,2.33
2022-08-12T13:27:01.852Z,2.33
2022-08-12T13:28:53.077Z,2.53
2022-08-12T13:30:33.501Z,2.90
2022-08-12T13:32:28.145Z,2.65
2022-08-12T13:34:33.621Z,2.42
2022-08-12T13:36:14.185Z,2.40
2022-08-12T13:37:59.436Z,2.60
2022-08-12T13:39:42.914Z,2.50
2022-08-12T13:41:35.698Z,2.40
2022-08-12T13:43:41.142Z,2.35
2022-08-12T13:45:17.342Z,2.45
2022-08-12T13:46:58.998Z,2.50
2022-08-12T13:48:44.751Z,2.05
2022-08-12T13:50:36.464Z,3.00
2022-08-12T13:52:18.638Z,2.70
2022-08-12T13:54:04.106Z,3.00
2022-08-12T13:55:49.951Z,2.30
2022-08-12T13:57:44.594Z,2.35
2022-08-12T13:59:26.821Z,2.95
2022-08-12T14:01:09.191Z,2.60
2022-08-12T14:02:53.123Z,2.25
2022-08-12T14:04:33.492Z,2.90
2022-08-12T14:06:15.441Z,2.33
2022-08-12T14:08:02.286Z,2.90
2022-08-12T14:10:00.361Z,2.80
2022-08-12T14:11:44.776Z,2.45
2022-08-12T14:14:03.854Z,3.13
2022-08-12T14:15:42.356Z,2.38
2022-08-12T14:17:28.156Z,2.42
2022-08-12T14:19:18.383Z,2.55
2022-08-12T14:21:06.021Z,2.65
2022-08-12T14:22:51.418Z,2.40
2022-08-12T14:24:35.644Z,2.90
2022-08-12T14:26:19.992Z,2.47
2022-08-12T14:28:12.456Z,2.70
2022-08-12T14:30:04.272Z,2.97
2022-08-12T14:31:46.312Z,2.75
2022-08-12T14:33:44.432Z,2.60
2022-08-12T14:35:25.032Z,2.92
2022-08-12T14:37:07.255Z,2.65
2022-08-12T14:38:55.043Z,3.00
2022-08-12T14:40:35.331Z,3.22
2022-08-12T14:42:15.312Z,2.67
2022-08-12T14:44:04.648Z,2.70
2022-08-12T14:45:56.952Z,2.45
2022-08-12T14:47:47.787Z,3.00
2022-08-12T14:50:33.541Z,2.65
2022-08-12T14:52:43.398Z,2.50
2022-08-12T14:58:00.966Z,2.63
2022-08-12T15:00:01.333Z,3.17
2022-08-12T15:01:44.691Z,3.28
2022-08-12T15:03:57.081Z,3.13
2022-08-12T15:06:05.996Z,2.70
2022-08-12T15:07:33.765Z,3.10
2022-08-12T15:09:31.467Z,2.60
2022-08-12T15:11:17.424Z,3.25
2022-08-12T15:13:07.371Z,3.42
2022-08-12T15:14:48.214Z,3.17
2022-08-12T15:16:29.758Z,3.30
2022-08-12T15:18:12.748Z,3.28
2022-08-12T15:20:31.921Z,3.15
2022-08-12T15:22:36.794Z,3.13
2022-08-12T15:23:55.549Z,3.65
2022-08-12T15:25:40.174Z,3.03
2022-08-12T15:29:28.524Z,3.13
2022-08-12T15:31:27.417Z,3.65
2022-08-12T15:33:12.239Z,3.17
2022-08-12T15:34:53.502Z,3.50
2022-08-12T15:36:53.833Z,3.53
2022-08-12T15:38:35.459Z,3.50
2022-08-12T15:40:30.408Z,3.95
2022-08-12T15:42:10.755Z,3.13
2022-08-12T15:44:36.753Z,3.35
2022-08-12T15:45:51.573Z,3.33
2022-08-12T15:47:49.765Z,3.67
2022-08-12T15:49:55.105Z,3.28
2022-08-12T15:51:58.630Z,3.43
2022-08-12T15:53:54.672Z,3.00
2022-08-12T15:55:35.513Z,3.00
2022-08-12T15:58:59.014Z,3.30
2022-08-12T16:00:40.885Z,3.00
2022-08-12T16:02:21.239Z,3.75
2022-08-12T16:04:01.474Z,3.17
2022-08-12T16:06:12.118Z,3.60
2022-08-12T16:07:44.647Z,3.38
2022-08-12T16:09:55.821Z,3.45
2022-08-12T16:11:24.187Z,2.92
2022-08-12T16:13:14.275Z,3.25
2022-08-12T16:14:55.990Z,3.45
2022-08-12T16:16:37.076Z,3.30
2022-08-12T16:18:20.528Z,2.85
2022-08-12T16:20:03.488Z,2.67
2022-08-12T16:21:52.336Z,2.83
2022-08-12T16:23:51.837Z,2.65
2022-08-12T16:26:03.296Z,2.85
2022-08-12T16:27:38.248Z,2.63
2022-08-12T16:29:52.190Z,2.35
2022-08-12T16:31:31.471Z,3.10
2022-08-12T16:33:17.917Z,2.63
2022-08-12T16:35:00.054Z,3.17
2022-08-12T16:36:42.877Z,3.60
2022-08-12T16:38:28.342Z,3.67
2022-08-12T16:40:10.571Z,3.45
2022-08-12T16:41:50.634Z,3.03
2022-08-12T16:43:33.667Z,2.70
2022-08-12T16:45:14.094Z,3.08
2022-08-12T16:46:58.060Z,3.22
2022-08-12T16:48:38.893Z,3.25
2022-08-12T16:50:30.683Z,3.63
2022-08-12T16:52:12.627Z,3.40
2022-08-12T16:53:52.827Z,3.85
2022-08-12T16:55:41.701Z,2.95
2022-08-12T16:57:34.978Z,3.33
2022-08-12T16:59:19.672Z,3.63
2022-08-12T17:01:01.931Z,3.80
2022-08-12T17:02:50.701Z,3.50
2022-08-12T17:04:42.293Z,3.92
2022-08-12T17:06:34.161Z,4.55
2022-08-12T17:08:15.527Z,4.53
2022-08-12T17:09:55.437Z,4.60
2022-08-12T17:11:38.797Z,4.70
2022-08-12T17:13:19.693Z,4.90
2022-08-12T17:15:00.645Z,4.57
2022-08-12T17:16:41.574Z,4.43
2022-08-12T17:18:44.189Z,4.25
2022-08-12T17:20:35.567Z,4.70
2022-08-12T17:22:21.615Z,4.03
2022-08-12T17:24:11.031Z,4.32
2022-08-12T17:25:56.076Z,4.07
2022-08-12T17:27:46.516Z,4.22
2022-08-12T17:30:02.347Z,4.50
2022-08-12T17:32:00.477Z,4.50
2022-08-12T17:33:43.266Z,4.22
2022-08-12T17:35:36.944Z,4.90
2022-08-12T17:37:18.141Z,5.07
2022-08-12T17:39:04.263Z,4.93
2022-08-12T17:40:49.274Z,4.32
2022-08-12T17:42:32.940Z,3.88
2022-08-12T17:44:15.162Z,4.45
2022-08-12T17:45:56.455Z,4.07
2022-08-12T17:47:39.222Z,4.38
2022-08-12T17:50:03.127Z,4.53
2022-08-12T17:51:20.519Z,4.43
2022-08-12T17:53:03.459Z,4.53
2022-08-12T17:54:12.215Z,3.97